sensor_id;sensor_type;location;lat;lon;timestamp;pressure;altitude;pressure_sealevel;temperature;humidity
72975;BME280;74127;54.228;37.632;2023-12-28T00:00:41;985.733;;;-1.91;85.91797
72975;BME280;74127;54.228;37.632;2023-12-28T00:04:41;985.7988;;;-1.74;85.62891
72975;BME280;74127;54.228;37.632;2023-12-28T00:08:41;985.8384;;;-1.58;85.38672
72975;BME280;74127;54.228;37.632;2023-12-28T00:16:41;985.8886;;;-1.57;84.83496
72975;BME280;74127;54.228;37.632;2023-12-28T00:20:41;985.9781;;;-1.46;84.5957
72975;BME280;74127;54.228;37.632;2023-12-28T00:24:41;986.0731;;;-1.39;84.67969
72975;BME280;74127;54.228;37.632;2023-12-28T00:28:41;986.1512;;;-1.38;84.52637
72975;BME280;74127;54.228;37.632;2023-12-28T00:32:41;986.1512;;;-1.38;84.52637
72975;BME280;74127;54.228;37.632;2023-12-28T00:36:41;985.9587;;;-1.45;84.85938
72975;BME280;74127;54.228;37.632;2023-12-28T00:40:41;986.0039;;;-1.47;85.22266
72975;BME280;74127;54.228;37.632;2023-12-28T00:44:41;985.9779;;;-1.48;85.44922
72975;BME280;74127;54.228;37.632;2023-12-28T00:48:41;985.9642;;;-1.44;85.61621
72975;BME280;74127;54.228;37.632;2023-12-28T00:52:41;985.9642;;;-1.44;85.61621
72975;BME280;74127;54.228;37.632;2023-12-28T00:56:41;986.0878;;;-1.45;85.69824
72975;BME280;74127;54.228;37.632;2023-12-28T01:00:41;986.1641;;;-1.46;85.92676
72975;BME280;74127;54.228;37.632;2023-12-28T01:04:41;986.118;;;-1.4;85.08887
72975;BME280;74127;54.228;37.632;2023-12-28T01:08:41;986.1514;;;-1.32;85.10352
72975;BME280;74127;54.228;37.632;2023-12-28T01:12:41;986.1514;;;-1.32;85.10352
72975;BME280;74127;54.228;37.632;2023-12-28T01:16:41;986.1627;;;-1.29;85.2666
72975;BME280;74127;54.228;37.632;2023-12-28T01:20:41;986.2594;;;-1.31;85.44336
72975;BME280;74127;54.228;37.632;2023-12-28T01:24:41;986.3056;;;-1.29;85.63574
72975;BME280;74127;54.228;37.632;2023-12-28T01:28:41;986.3898;;;-1.29;85.69824
72975;BME280;74127;54.228;37.632;2023-12-28T01:32:41;986.3898;;;-1.29;85.69824
72975;BME280;74127;54.228;37.632;2023-12-28T01:36:41;986.5296;;;-1.3;85.52734
72975;BME280;74127;54.228;37.632;2023-12-28T01:40:44;986.4398;;;-1.25;85.51563
72975;BME280;74127;54.228;37.632;2023-12-28T01:44:41;986.4869;;;-1.32;85.36621
72975;BME280;74127;54.228;37.632;2023-12-28T01:48:41;986.517;;;-1.38;85.77637
72975;BME280;74127;54.228;37.632;2023-12-28T01:56:41;986.5582;;;-1.34;85.65723
72975;BME280;74127;54.228;37.632;2023-12-28T02:00:41;986.5408;;;-1.26;85.63086
72975;BME280;74127;54.228;37.632;2023-12-28T02:04:41;986.4663;;;-1.25;84.86719
72975;BME280;74127;54.228;37.632;2023-12-28T02:08:41;986.5139;;;-1.33;85.58594
72975;BME280;74127;54.228;37.632;2023-12-28T02:12:41;986.5139;;;-1.33;85.58594
72975;BME280;74127;54.228;37.632;2023-12-28T02:16:44;986.7589;;;-1.22;85.55469
72975;BME280;74127;54.228;37.632;2023-12-28T02:20:41;986.7084;;;-1.08;85.3623
72975;BME280;74127;54.228;37.632;2023-12-28T02:36:41;986.8876;;;-0.99;85.12891
72975;BME280;74127;54.228;37.632;2023-12-28T02:40:42;986.9202;;;-0.95;85.25195
72975;BME280;74127;54.228;37.632;2023-12-28T02:44:41;987.0782;;;-0.97;85.1748
72975;BME280;74127;54.228;37.632;2023-12-28T02:48:41;987.0662;;;-0.98;85.19336
72975;BME280;74127;54.228;37.632;2023-12-28T02:52:41;987.0662;;;-0.98;85.19336
72975;BME280;74127;54.228;37.632;2023-12-28T02:56:41;987.0577;;;-0.99;85.38965
72975;BME280;74127;54.228;37.632;2023-12-28T03:00:41;987.0981;;;-1.03;85.47852
72975;BME280;74127;54.228;37.632;2023-12-28T03:04:41;987.1437;;;-1.24;85.78125
72975;BME280;74127;54.228;37.632;2023-12-28T03:08:41;987.1746;;;-1.3;86.22949
72975;BME280;74127;54.228;37.632;2023-12-28T03:12:41;987.1746;;;-1.3;86.22949
72975;BME280;74127;54.228;37.632;2023-12-28T03:16:41;987.2195;;;-1.28;86.33984
72975;BME280;74127;54.228;37.632;2023-12-28T03:20:41;987.2231;;;-1.24;86.46484
72975;BME280;74127;54.228;37.632;2023-12-28T03:24:41;987.1458;;;-1.2;86.31543
72975;BME280;74127;54.228;37.632;2023-12-28T03:28:41;987.1075;;;-1.18;86.3584
72975;BME280;74127;54.228;37.632;2023-12-28T03:32:41;987.1075;;;-1.18;86.3584
72975;BME280;74127;54.228;37.632;2023-12-28T03:36:41;987.1451;;;-1.21;86.56445
72975;BME280;74127;54.228;37.632;2023-12-28T03:40:41;987.0748;;;-1.19;86.56641
72975;BME280;74127;54.228;37.632;2023-12-28T03:44:41;987.1008;;;-1.22;86.59473
72975;BME280;74127;54.228;37.632;2023-12-28T03:48:41;987.1295;;;-1.32;86.79395
72975;BME280;74127;54.228;37.632;2023-12-28T03:52:41;987.1295;;;-1.32;86.79395
72975;BME280;74127;54.228;37.632;2023-12-28T03:56:41;987.1537;;;-1.35;86.83887
72975;BME280;74127;54.228;37.632;2023-12-28T04:00:41;987.1756;;;-1.4;86.92285
72975;BME280;74127;54.228;37.632;2023-12-28T04:04:41;987.1433;;;-1.43;86.94922
72975;BME280;74127;54.228;37.632;2023-12-28T04:08:41;987.2191;;;-1.53;87.02246
72975;BME280;74127;54.228;37.632;2023-12-28T04:12:41;987.2191;;;-1.53;87.02246
72975;BME280;74127;54.228;37.632;2023-12-28T04:16:41;987.2252;;;-1.49;87.09277
72975;BME280;74127;54.228;37.632;2023-12-28T04:20:44;987.41;;;-1.38;86.6543
72975;BME280;74127;54.228;37.632;2023-12-28T04:24:41;987.4197;;;-1.32;86.45801
72975;BME280;74127;54.228;37.632;2023-12-28T04:28:41;987.385;;;-1.17;86.30176
72975;BME280;74127;54.228;37.632;2023-12-28T04:32:41;987.385;;;-1.17;86.30176
72975;BME280;74127;54.228;37.632;2023-12-28T04:36:42;987.4255;;;-1.14;86.25293
72975;BME280;74127;54.228;37.632;2023-12-28T04:44:41;987.3611;;;-1.24;86.23242
72975;BME280;74127;54.228;37.632;2023-12-28T04:48:41;987.4283;;;-1.3;86.50195
72975;BME280;74127;54.228;37.632;2023-12-28T04:52:41;987.4283;;;-1.3;86.50195
72975;BME280;74127;54.228;37.632;2023-12-28T04:56:41;987.5108;;;-1.3;86.59863
72975;BME280;74127;54.228;37.632;2023-12-28T05:00:41;987.3997;;;-1.23;86.35938
72975;BME280;74127;54.228;37.632;2023-12-28T05:04:41;987.3664;;;-1.22;86.20605
72975;BME280;74127;54.228;37.632;2023-12-28T05:08:41;987.3549;;;-1.31;86.26074
72975;BME280;74127;54.228;37.632;2023-12-28T05:12:41;987.3549;;;-1.31;86.26074
72975;BME280;74127;54.228;37.632;2023-12-28T05:16:42;987.3969;;;-1.33;86.45605
72975;BME280;74127;54.228;37.632;2023-12-28T05:20:41;987.4528;;;-1.23;86.33887
72975;BME280;74127;54.228;37.632;2023-12-28T05:24:41;987.5294;;;-1.13;86.30762
72975;BME280;74127;54.228;37.632;2023-12-28T05:28:41;987.5189;;;-1.13;86.01367
72975;BME280;74127;54.228;37.632;2023-12-28T05:32:41;987.5189;;;-1.13;86.01367
72975;BME280;74127;54.228;37.632;2023-12-28T05:36:41;987.5298;;;-1.14;86.36816
72975;BME280;74127;54.228;37.632;2023-12-28T05:40:41;987.6155;;;-1.15;86.61816
72975;BME280;74127;54.228;37.632;2023-12-28T05:44:41;987.5615;;;-1.1;86.86914
72975;BME280;74127;54.228;37.632;2023-12-28T05:48:41;987.6492;;;-1.05;86.75391
72975;BME280;74127;54.228;37.632;2023-12-28T05:52:41;987.6492;;;-1.05;86.75391
72975;BME280;74127;54.228;37.632;2023-12-28T05:56:41;987.6755;;;-1.03;86.92578
72975;BME280;74127;54.228;37.632;2023-12-28T06:00:41;987.7957;;;-1.01;87.04297
72975;BME280;74127;54.228;37.632;2023-12-28T06:04:41;987.7455;;;-1.03;87.1543
72975;BME280;74127;54.228;37.632;2023-12-28T06:08:41;987.7628;;;-0.92;87.11426
72975;BME280;74127;54.228;37.632;2023-12-28T06:12:41;987.7628;;;-0.92;87.11426
72975;BME280;74127;54.228;37.632;2023-12-28T06:16:41;987.865;;;-0.84;86.91113
72975;BME280;74127;54.228;37.632;2023-12-28T06:20:41;987.9448;;;-0.73;86.70313
72975;BME280;74127;54.228;37.632;2023-12-28T06:24:41;988.036;;;-0.55;86.56055
72975;BME280;74127;54.228;37.632;2023-12-28T06:28:41;988.0863;;;-0.37;86.20801
72975;BME280;74127;54.228;37.632;2023-12-28T06:32:41;988.0863;;;-0.37;86.20801
72975;BME280;74127;54.228;37.632;2023-12-28T06:36:41;988.2319;;;-0.26;86.08398
72975;BME280;74127;54.228;37.632;2023-12-28T06:40:41;988.2466;;;-0.2;85.86523
72975;BME280;74127;54.228;37.632;2023-12-28T06:44:41;988.3095;;;-0.15;85.94824
72975;BME280;74127;54.228;37.632;2023-12-28T06:48:41;988.3489;;;-0.02;85.74316
72975;BME280;74127;54.228;37.632;2023-12-28T06:52:41;988.3489;;;-0.02;85.74316
72975;BME280;74127;54.228;37.632;2023-12-28T06:56:42;988.457;;;0.12;85.41406
72975;BME280;74127;54.228;37.632;2023-12-28T07:04:41;988.5595;;;0.28;84.75098
72975;BME280;74127;54.228;37.632;2023-12-28T07:08:41;988.6802;;;0.26;85.10449
72975;BME280;74127;54.228;37.632;2023-12-28T07:12:41;988.6802;;;0.26;85.10449
72975;BME280;74127;54.228;37.632;2023-12-28T07:16:41;988.6415;;;0.25;85.11133
72975;BME280;74127;54.228;37.632;2023-12-28T07:20:41;988.7025;;;0.22;85.40039
72975;BME280;74127;54.228;37.632;2023-12-28T07:24:41;988.7767;;;0.24;85.53223
72975;BME280;74127;54.228;37.632;2023-12-28T07:28:41;988.8382;;;0.21;85.72656
72975;BME280;74127;54.228;37.632;2023-12-28T07:32:42;988.8382;;;0.21;85.72656
72975;BME280;74127;54.228;37.632;2023-12-28T07:36:41;988.8677;;;0.16;85.86328
72975;BME280;74127;54.228;37.632;2023-12-28T07:40:41;988.9551;;;0.08;86.28809
72975;BME280;74127;54.228;37.632;2023-12-28T07:44:41;989;;;0.08;86.2041
72975;BME280;74127;54.228;37.632;2023-12-28T07:48:41;989.1794;;;0.15;86.08203
72975;BME280;74127;54.228;37.632;2023-12-28T07:52:42;989.1794;;;0.15;86.08203
72975;BME280;74127;54.228;37.632;2023-12-28T07:56:41;989.2444;;;0.31;85.53711
72975;BME280;74127;54.228;37.632;2023-12-28T08:00:41;989.183;;;0.68;84.6084
72975;BME280;74127;54.228;37.632;2023-12-28T08:04:41;989.3223;;;0.93;84.27734
72975;BME280;74127;54.228;37.632;2023-12-28T08:08:41;989.3986;;;0.96;84.14746
72975;BME280;74127;54.228;37.632;2023-12-28T08:12:41;989.3986;;;0.96;84.14746
72975;BME280;74127;54.228;37.632;2023-12-28T08:16:41;989.4758;;;0.71;84.07715
72975;BME280;74127;54.228;37.632;2023-12-28T08:20:41;989.5822;;;0.52;84.40918
72975;BME280;74127;54.228;37.632;2023-12-28T08:24:42;989.6091;;;0.53;84.71582
72975;BME280;74127;54.228;37.632;2023-12-28T08:28:42;989.6881;;;0.54;84.27734
72975;BME280;74127;54.228;37.632;2023-12-28T08:32:42;989.6881;;;0.54;84.27734
72975;BME280;74127;54.228;37.632;2023-12-28T08:36:42;989.7267;;;0.48;84.04199
72975;BME280;74127;54.228;37.632;2023-12-28T08:40:42;989.7936;;;0.49;84.44531
72975;BME280;74127;54.228;37.632;2023-12-28T08:44:42;989.8279;;;0.58;84.02148
72975;BME280;74127;54.228;37.632;2023-12-28T08:48:42;989.8089;;;0.69;83.96777
72975;BME280;74127;54.228;37.632;2023-12-28T08:52:42;989.8089;;;0.69;83.96777
72975;BME280;74127;54.228;37.632;2023-12-28T08:56:42;989.9573;;;0.79;83.06152
72975;BME280;74127;54.228;37.632;2023-12-28T09:00:42;989.9648;;;0.75;82.69434
72975;BME280;74127;54.228;37.632;2023-12-28T09:04:42;990.0119;;;0.62;82.04688
72975;BME280;74127;54.228;37.632;2023-12-28T09:08:42;990.0443;;;0.42;81.8916
72975;BME280;74127;54.228;37.632;2023-12-28T09:16:42;990.1099;;;0.29;80.8125
72975;BME280;74127;54.228;37.632;2023-12-28T09:20:42;990.0715;;;0.55;80.59961
72975;BME280;74127;54.228;37.632;2023-12-28T09:24:42;990.0231;;;0.97;80.1709
72975;BME280;74127;54.228;37.632;2023-12-28T09:28:43;990.1409;;;1.05;80.22852
72975;BME280;74127;54.228;37.632;2023-12-28T09:32:42;990.1409;;;1.05;80.22852
72975;BME280;74127;54.228;37.632;2023-12-28T09:36:42;990.2194;;;0.92;80.09863
72975;BME280;74127;54.228;37.632;2023-12-28T09:40:42;990.2533;;;0.86;80.18262
72975;BME280;74127;54.228;37.632;2023-12-28T09:44:43;990.3675;;;0.87;79.21289
72975;BME280;74127;54.228;37.632;2023-12-28T09:48:42;990.3929;;;0.99;78.75879
72975;BME280;74127;54.228;37.632;2023-12-28T09:52:42;990.3929;;;0.99;78.75879
72975;BME280;74127;54.228;37.632;2023-12-28T09:56:42;990.4256;;;0.94;76.99609
72975;BME280;74127;54.228;37.632;2023-12-28T10:00:43;990.5047;;;0.87;78.06152
72975;BME280;74127;54.228;37.632;2023-12-28T10:04:42;990.469;;;1.05;77.85156
72975;BME280;74127;54.228;37.632;2023-12-28T10:08:45;990.5877;;;1.01;76.31152
72975;BME280;74127;54.228;37.632;2023-12-28T10:12:42;990.5877;;;1.01;76.31152
72975;BME280;74127;54.228;37.632;2023-12-28T10:16:42;990.5441;;;0.55;74.31738
72975;BME280;74127;54.228;37.632;2023-12-28T10:20:42;990.5953;;;0.2;77.0625
72975;BME280;74127;54.228;37.632;2023-12-28T10:24:44;990.5931;;;0.06;77.80664
72975;BME280;74127;54.228;37.632;2023-12-28T10:28:42;990.5535;;;0.1;78.78516
72975;BME280;74127;54.228;37.632;2023-12-28T10:32:42;990.5535;;;0.1;78.78516
72975;BME280;74127;54.228;37.632;2023-12-28T10:36:42;990.4833;;;-0.01;77.24609
72975;BME280;74127;54.228;37.632;2023-12-28T10:40:42;990.5262;;;0.11;78.59766
72975;BME280;74127;54.228;37.632;2023-12-28T10:44:43;990.5131;;;0;78.81055
72975;BME280;74127;54.228;37.632;2023-12-28T10:48:42;990.4953;;;-0.33;78.60938
72975;BME280;74127;54.228;37.632;2023-12-28T10:52:42;990.4953;;;-0.33;78.60938
72975;BME280;74127;54.228;37.632;2023-12-28T10:56:44;990.5675;;;-0.63;78.79688
72975;BME280;74127;54.228;37.632;2023-12-28T11:00:44;990.6552;;;-0.41;78.81641
72975;BME280;74127;54.228;37.632;2023-12-28T11:04:42;990.6406;;;-0.11;76.24707
72975;BME280;74127;54.228;37.632;2023-12-28T11:08:42;990.6758;;;0.03;75.58691
72975;BME280;74127;54.228;37.632;2023-12-28T11:12:42;990.6758;;;0.03;75.58691
72975;BME280;74127;54.228;37.632;2023-12-28T11:20:43;990.6909;;;-0.68;78.62988
72975;BME280;74127;54.228;37.632;2023-12-28T11:24:42;990.8426;;;-0.5;78.0957
72975;BME280;74127;54.228;37.632;2023-12-28T11:28:42;990.9107;;;-0.25;78.17188
72975;BME280;74127;54.228;37.632;2023-12-28T11:32:42;990.9107;;;-0.25;78.17188
72975;BME280;74127;54.228;37.632;2023-12-28T11:36:51;990.9894;;;-0.18;78.41797
72975;BME280;74127;54.228;37.632;2023-12-28T11:40:42;990.9437;;;-0.25;78.50879
72975;BME280;74127;54.228;37.632;2023-12-28T11:44:43;990.9492;;;-0.27;78.72656
72975;BME280;74127;54.228;37.632;2023-12-28T11:48:42;990.937;;;-0.26;79.09961
72975;BME280;74127;54.228;37.632;2023-12-28T11:52:42;990.937;;;-0.26;79.09961
72975;BME280;74127;54.228;37.632;2023-12-28T11:56:42;990.99;;;-0.3;78.20605
72975;BME280;74127;54.228;37.632;2023-12-28T12:00:42;990.9942;;;-0.34;78.27246
72975;BME280;74127;54.228;37.632;2023-12-28T12:04:42;991.0272;;;-0.32;79.59277
72975;BME280;74127;54.228;37.632;2023-12-28T12:08:45;991.0295;;;-0.37;79.65723
72975;BME280;74127;54.228;37.632;2023-12-28T12:12:42;991.0295;;;-0.37;79.65723
72975;BME280;74127;54.228;37.632;2023-12-28T12:16:42;991.1401;;;-0.49;79.9502
72975;BME280;74127;54.228;37.632;2023-12-28T12:20:43;991.1142;;;-0.51;79.89453
72975;BME280;74127;54.228;37.632;2023-12-28T12:24:43;991.0961;;;-0.48;80.22363
72975;BME280;74127;54.228;37.632;2023-12-28T12:28:42;991.1578;;;-0.46;80.67188
72975;BME280;74127;54.228;37.632;2023-12-28T12:32:42;991.1578;;;-0.46;80.67188
72975;BME280;74127;54.228;37.632;2023-12-28T12:36:42;991.1641;;;-0.45;80.91699
72975;BME280;74127;54.228;37.632;2023-12-28T12:44:42;991.3145;;;-0.59;80.96191
72975;BME280;74127;54.228;37.632;2023-12-28T12:48:42;991.3778;;;-0.67;80.62012
72975;BME280;74127;54.228;37.632;2023-12-28T12:52:42;991.3778;;;-0.67;80.62012
72975;BME280;74127;54.228;37.632;2023-12-28T13:00:42;991.55;;;-0.84;80.92676
72975;BME280;74127;54.228;37.632;2023-12-28T13:04:42;991.5856;;;-0.83;81.1582
72975;BME280;74127;54.228;37.632;2023-12-28T13:08:42;991.6014;;;-0.78;81.80957
72975;BME280;74127;54.228;37.632;2023-12-28T13:12:42;991.6014;;;-0.78;81.80957
72975;BME280;74127;54.228;37.632;2023-12-28T13:16:42;991.6661;;;-0.83;81.46289
72975;BME280;74127;54.228;37.632;2023-12-28T13:20:42;991.6178;;;-1.05;81.2959
72975;BME280;74127;54.228;37.632;2023-12-28T13:24:42;991.5405;;;-1.24;80.93262
72975;BME280;74127;54.228;37.632;2023-12-28T13:28:42;991.5089;;;-1.35;81.44922
72975;BME280;74127;54.228;37.632;2023-12-28T13:32:42;991.5089;;;-1.35;81.44922
72975;BME280;74127;54.228;37.632;2023-12-28T13:36:42;991.5263;;;-1.48;81.78027
72975;BME280;74127;54.228;37.632;2023-12-28T13:40:42;991.6292;;;-1.55;82.45898
72975;BME280;74127;54.228;37.632;2023-12-28T13:44:42;991.6872;;;-1.5;82.00586
72975;BME280;74127;54.228;37.632;2023-12-28T13:48:42;991.5903;;;-1.52;82.33789
72975;BME280;74127;54.228;37.632;2023-12-28T13:52:42;991.5903;;;-1.52;82.33789
72975;BME280;74127;54.228;37.632;2023-12-28T13:56:42;991.6005;;;-1.58;81.92871
72975;BME280;74127;54.228;37.632;2023-12-28T14:00:42;991.5272;;;-1.69;81.60254
72975;BME280;74127;54.228;37.632;2023-12-28T14:04:42;991.6719;;;-1.77;80.62207
72975;BME280;74127;54.228;37.632;2023-12-28T14:08:42;991.7609;;;-1.92;81.42188
72975;BME280;74127;54.228;37.632;2023-12-28T14:12:42;991.7609;;;-1.92;81.42188
72975;BME280;74127;54.228;37.632;2023-12-28T14:16:42;991.8137;;;-2.24;81.6123
72975;BME280;74127;54.228;37.632;2023-12-28T14:20:42;992.0039;;;-2.71;82.41211
72975;BME280;74127;54.228;37.632;2023-12-28T14:24:42;992.0945;;;-3.19;82.91211
72975;BME280;74127;54.228;37.632;2023-12-28T14:28:42;992.0616;;;-3.52;83.22559
72975;BME280;74127;54.228;37.632;2023-12-28T14:32:42;992.0616;;;-3.52;83.22559
72975;BME280;74127;54.228;37.632;2023-12-28T14:36:44;992.0215;;;-3.65;83.62793
72975;BME280;74127;54.228;37.632;2023-12-28T14:40:42;992.0397;;;-3.87;83.66699
72975;BME280;74127;54.228;37.632;2023-12-28T14:44:42;991.9124;;;-4.15;83.69531
72975;BME280;74127;54.228;37.632;2023-12-28T14:48:42;991.9278;;;-4.29;84.37598
72975;BME280;74127;54.228;37.632;2023-12-28T14:52:43;991.9278;;;-4.29;84.37598
72975;BME280;74127;54.228;37.632;2023-12-28T14:56:42;991.9869;;;-4.25;84.48926
72975;BME280;74127;54.228;37.632;2023-12-28T15:00:43;992.0161;;;-4.1;84.2373
72975;BME280;74127;54.228;37.632;2023-12-28T15:04:42;991.9547;;;-3.7;83.70215
72975;BME280;74127;54.228;37.632;2023-12-28T15:08:42;991.9716;;;-3.57;83.77832
72975;BME280;74127;54.228;37.632;2023-12-28T15:12:42;991.9716;;;-3.57;83.77832
72975;BME280;74127;54.228;37.632;2023-12-28T15:16:42;991.9637;;;-3.42;82.98438
72975;BME280;74127;54.228;37.632;2023-12-28T15:20:43;991.974;;;-3.36;82.46289
72975;BME280;74127;54.228;37.632;2023-12-28T15:24:42;991.9191;;;-3.61;83.44531
72975;BME280;74127;54.228;37.632;2023-12-28T15:28:45;991.9844;;;-3.64;83.97363
72975;BME280;74127;54.228;37.632;2023-12-28T15:32:42;991.9844;;;-3.64;83.97363
72975;BME280;74127;54.228;37.632;2023-12-28T15:36:42;991.9302;;;-3.26;82.36621
72975;BME280;74127;54.228;37.632;2023-12-28T15:40:42;991.9855;;;-3;81.94629
72975;BME280;74127;54.228;37.632;2023-12-28T15:44:42;991.8619;;;-2.86;81.8916
72975;BME280;74127;54.228;37.632;2023-12-28T15:48:42;991.7569;;;-2.68;82.08301
72975;BME280;74127;54.228;37.632;2023-12-28T15:52:42;991.7569;;;-2.68;82.08301
72975;BME280;74127;54.228;37.632;2023-12-28T15:56:42;991.7957;;;-2.55;81.93848
72975;BME280;74127;54.228;37.632;2023-12-28T16:00:42;991.7094;;;-2.47;81.4541
72975;BME280;74127;54.228;37.632;2023-12-28T16:04:42;991.6415;;;-2.38;81.08301
72975;BME280;74127;54.228;37.632;2023-12-28T16:08:42;991.5757;;;-2.37;81.29395
72975;BME280;74127;54.228;37.632;2023-12-28T16:12:42;991.5757;;;-2.37;81.29395
72975;BME280;74127;54.228;37.632;2023-12-28T16:16:42;991.6772;;;-2.3;81.73633
72975;BME280;74127;54.228;37.632;2023-12-28T16:20:42;991.6386;;;-2.27;81.50293
72975;BME280;74127;54.228;37.632;2023-12-28T16:24:42;991.4785;;;-2.27;81.35449
72975;BME280;74127;54.228;37.632;2023-12-28T16:28:42;991.425;;;-2.3;80.02832
72975;BME280;74127;54.228;37.632;2023-12-28T16:32:42;991.425;;;-2.3;80.02832
72975;BME280;74127;54.228;37.632;2023-12-28T16:36:42;991.5388;;;-2.3;79.50684
72975;BME280;74127;54.228;37.632;2023-12-28T16:40:42;991.705;;;-2.32;78.54785
72975;BME280;74127;54.228;37.632;2023-12-28T16:44:42;991.7302;;;-2.36;78.0498
72975;BME280;74127;54.228;37.632;2023-12-28T16:48:42;991.6156;;;-2.33;78.63086
72975;BME280;74127;54.228;37.632;2023-12-28T16:52:42;991.6156;;;-2.33;78.63086
72975;BME280;74127;54.228;37.632;2023-12-28T16:56:42;991.5164;;;-2.19;77.45996
72975;BME280;74127;54.228;37.632;2023-12-28T17:00:42;991.5964;;;-2.21;78.20117
72975;BME280;74127;54.228;37.632;2023-12-28T17:04:43;991.6875;;;-2.16;79.09082
72975;BME280;74127;54.228;37.632;2023-12-28T17:08:43;991.7733;;;-2.15;77.42676
72975;BME280;74127;54.228;37.632;2023-12-28T17:12:42;991.7733;;;-2.15;77.42676
72975;BME280;74127;54.228;37.632;2023-12-28T17:16:43;991.7469;;;-2.3;77.50391
72975;BME280;74127;54.228;37.632;2023-12-28T17:20:43;991.7006;;;-2.22;78.29395
72975;BME280;74127;54.228;37.632;2023-12-28T17:24:48;991.7473;;;-2.29;78.25
72975;BME280;74127;54.228;37.632;2023-12-28T17:28:50;991.6397;;;-2.16;78.54688
72975;BME280;74127;54.228;37.632;2023-12-28T17:32:43;991.6397;;;-2.16;78.54688
72975;BME280;74127;54.228;37.632;2023-12-28T17:36:43;991.4545;;;-2.25;78.54004
72975;BME280;74127;54.228;37.632;2023-12-28T17:40:43;991.5244;;;-2.3;78.06836
72975;BME280;74127;54.228;37.632;2023-12-28T17:44:43;991.4875;;;-2.4;77.39063
72975;BME280;74127;54.228;37.632;2023-12-28T17:48:43;991.517;;;-2.43;77.64844
72975;BME280;74127;54.228;37.632;2023-12-28T17:56:43;991.6074;;;-2.45;77.99023
72975;BME280;74127;54.228;37.632;2023-12-28T18:00:43;991.4706;;;-2.48;77.55371
72975;BME280;74127;54.228;37.632;2023-12-28T18:04:43;991.4694;;;-2.42;78.66602
72975;BME280;74127;54.228;37.632;2023-12-28T18:08:43;991.3647;;;-2.29;78.84766
72975;BME280;74127;54.228;37.632;2023-12-28T18:12:43;991.3647;;;-2.29;78.84766
72975;BME280;74127;54.228;37.632;2023-12-28T18:16:43;991.4644;;;-2.13;78.75
72975;BME280;74127;54.228;37.632;2023-12-28T18:20:43;991.509;;;-2.14;78.50879
72975;BME280;74127;54.228;37.632;2023-12-28T18:24:43;991.4192;;;-2.11;77.88281
72975;BME280;74127;54.228;37.632;2023-12-28T18:32:43;991.3599;;;-2.26;77.98242
72975;BME280;74127;54.228;37.632;2023-12-28T18:36:43;991.228;;;-2.22;77.43359
72975;BME280;74127;54.228;37.632;2023-12-28T18:40:43;991.1927;;;-2.21;78.65332
72975;BME280;74127;54.228;37.632;2023-12-28T18:44:43;991.0313;;;-2.15;78.48633
72975;BME280;74127;54.228;37.632;2023-12-28T18:48:43;991.0168;;;-2.12;78.88965
72975;BME280;74127;54.228;37.632;2023-12-28T18:52:43;991.0168;;;-2.12;78.88965
72975;BME280;74127;54.228;37.632;2023-12-28T18:56:43;990.8022;;;-2.02;78.98047
72975;BME280;74127;54.228;37.632;2023-12-28T19:00:43;990.9597;;;-1.99;78.72461
72975;BME280;74127;54.228;37.632;2023-12-28T19:04:43;990.8775;;;-1.96;78.77246
72975;BME280;74127;54.228;37.632;2023-12-28T19:08:43;990.973;;;-1.96;78.82422
72975;BME280;74127;54.228;37.632;2023-12-28T19:12:43;990.973;;;-1.96;78.82422
72975;BME280;74127;54.228;37.632;2023-12-28T19:16:43;990.9406;;;-2.06;77.67383
72975;BME280;74127;54.228;37.632;2023-12-28T19:20:43;990.834;;;-2.28;76.88867
72975;BME280;74127;54.228;37.632;2023-12-28T19:24:43;990.598;;;-2.29;76.54102
72975;BME280;74127;54.228;37.632;2023-12-28T19:28:43;990.6044;;;-2.23;77.88477
72975;BME280;74127;54.228;37.632;2023-12-28T19:32:43;990.6044;;;-2.23;77.88477
72975;BME280;74127;54.228;37.632;2023-12-28T19:36:43;990.6199;;;-2.4;75.39844
72975;BME280;74127;54.228;37.632;2023-12-28T19:40:43;990.5557;;;-2.4;77.16016
72975;BME280;74127;54.228;37.632;2023-12-28T19:44:43;990.5403;;;-2.3;75.0166
72975;BME280;74127;54.228;37.632;2023-12-28T19:48:43;990.4675;;;-2.33;77.35059
72975;BME280;74127;54.228;37.632;2023-12-28T19:56:43;990.3987;;;-2.26;75.70703
72975;BME280;74127;54.228;37.632;2023-12-28T20:00:43;990.3719;;;-2.48;76.26563
72975;BME280;74127;54.228;37.632;2023-12-28T20:04:43;990.2897;;;-2.58;76.40527
72975;BME280;74127;54.228;37.632;2023-12-28T20:08:43;990.291;;;-2.58;77.72559
72975;BME280;74127;54.228;37.632;2023-12-28T20:12:43;990.291;;;-2.58;77.72559
72975;BME280;74127;54.228;37.632;2023-12-28T20:16:43;990.1661;;;-2.43;77.81543
72975;BME280;74127;54.228;37.632;2023-12-28T20:20:43;990.1697;;;-2.4;78.37598
72975;BME280;74127;54.228;37.632;2023-12-28T20:24:43;990.0238;;;-2.39;77.72656
72975;BME280;74127;54.228;37.632;2023-12-28T20:28:43;989.9441;;;-2.4;78.73242
72975;BME280;74127;54.228;37.632;2023-12-28T20:32:43;989.9441;;;-2.4;78.73242
72975;BME280;74127;54.228;37.632;2023-12-28T20:36:44;989.9575;;;-2.29;79.17285
72975;BME280;74127;54.228;37.632;2023-12-28T20:40:43;989.9489;;;-2.45;78.94434
72975;BME280;74127;54.228;37.632;2023-12-28T20:44:43;989.851;;;-2.67;79.54102
72975;BME280;74127;54.228;37.632;2023-12-28T20:48:43;989.8144;;;-2.8;80.14453
72975;BME280;74127;54.228;37.632;2023-12-28T20:52:43;989.8144;;;-2.8;80.14453
72975;BME280;74127;54.228;37.632;2023-12-28T20:56:43;989.7302;;;-2.98;80.58008
72975;BME280;74127;54.228;37.632;2023-12-28T21:00:43;989.6582;;;-3.05;81.25781
72975;BME280;74127;54.228;37.632;2023-12-28T21:04:43;989.7015;;;-3.06;81.29785
72975;BME280;74127;54.228;37.632;2023-12-28T21:08:43;989.5734;;;-3.25;81.55273